TAIP21 YSNW-YSNW
Flight info
| Callsign | TAIP21 |
|---|---|
| Flight time | 0h 51m |
| Altitude | 5500 |
| Route | YGLB DCT YJBY |
| Aircraft | EC45/L-SDFGRY/C |
Departure
| Time | 2026-04-18 09:13 |
|---|---|
| Airport | Naval Air Station Nowra - HMAS Albatross (YSNW) |
Arrival
| Time | 2026-04-18 10:05 |
|---|---|
| Airport | Naval Air Station Nowra - HMAS Albatross (YSNW) |
| Time | Latitude | Longitude | Altitude | Speed | Heading |
|---|---|---|---|---|---|
| 2026-04-18 09:01 | -34.94622 | 150.54662 | 358 ft | 0 kts | 330° |
| 2026-04-18 09:04 | -34.94618 | 150.54662 | 369 ft | 1 kts | 306° |
| 2026-04-18 09:04 | -34.94604 | 150.54653 | 367 ft | 3 kts | 297° |
| 2026-04-18 09:05 | -34.94599 | 150.54628 | 373 ft | 4 kts | 266° |
| 2026-04-18 09:05 | -34.94602 | 150.54614 | 374 ft | 1 kts | 254° |
| 2026-04-18 09:05 | -34.94601 | 150.54602 | 379 ft | 1 kts | 252° |
| 2026-04-18 09:05 | -34.94590 | 150.54579 | 386 ft | 8 kts | 297° |
| 2026-04-18 09:06 | -34.94498 | 150.54530 | 398 ft | 17 kts | 325° |
| 2026-04-18 09:06 | -34.94395 | 150.54449 | 420 ft | 17 kts | 321° |
| 2026-04-18 09:06 | -34.94317 | 150.54385 | 418 ft | 11 kts | 327° |
| 2026-04-18 09:06 | -34.94255 | 150.54315 | 428 ft | 13 kts | 322° |
| 2026-04-18 09:07 | -34.94196 | 150.54244 | 425 ft | 11 kts | 322° |
| 2026-04-18 09:07 | -34.94173 | 150.54131 | 436 ft | 15 kts | 310° |
| 2026-04-18 09:07 | -34.94147 | 150.54042 | 437 ft | 9 kts | 313° |
| 2026-04-18 09:07 | -34.94131 | 150.54007 | 419 ft | 3 kts | 316° |
| 2026-04-18 09:08 | -34.94141 | 150.53982 | 408 ft | 8 kts | 316° |
| 2026-04-18 09:08 | -34.94151 | 150.54014 | 405 ft | 4 kts | 317° |
| 2026-04-18 09:08 | -34.94123 | 150.54006 | 414 ft | 7 kts | 316° |
| 2026-04-18 09:08 | -34.94109 | 150.54008 | 421 ft | 1 kts | 316° |
| 2026-04-18 09:09 | -34.94112 | 150.54007 | 431 ft | 0 kts | 316° |
| 2026-04-18 09:09 | -34.94112 | 150.54006 | 434 ft | 0 kts | 316° |
| 2026-04-18 09:09 | -34.94111 | 150.54006 | 436 ft | 0 kts | 316° |
| 2026-04-18 09:09 | -34.94111 | 150.54007 | 434 ft | 0 kts | 316° |
| 2026-04-18 09:10 | -34.94112 | 150.54006 | 427 ft | 0 kts | 316° |
| 2026-04-18 09:10 | -34.94111 | 150.54007 | 421 ft | 0 kts | 316° |
| 2026-04-18 09:10 | -34.94108 | 150.53999 | 429 ft | 6 kts | 300° |
| 2026-04-18 09:11 | -34.94055 | 150.53888 | 470 ft | 24 kts | 315° |
| 2026-04-18 09:11 | -34.93929 | 150.53799 | 463 ft | 16 kts | 326° |
| 2026-04-18 09:11 | -34.93828 | 150.53807 | 439 ft | 17 kts | 26° |
| 2026-04-18 09:11 | -34.93793 | 150.53886 | 425 ft | 9 kts | 98° |
| 2026-04-18 09:12 | -34.93804 | 150.53947 | 417 ft | 5 kts | 133° |
| 2026-04-18 09:12 | -34.93818 | 150.53970 | 427 ft | 4 kts | 136° |
| 2026-04-18 09:12 | -34.93932 | 150.53973 | 524 ft | 35 kts | 237° |
| 2026-04-18 09:12 | -34.93812 | 150.53527 | 638 ft | 74 kts | 286° |
| 2026-04-18 09:13 | -34.93617 | 150.52836 | 710 ft | 95 kts | 285° |
| 2026-04-18 09:13 | -34.93423 | 150.52065 | 899 ft | 94 kts | 276° |
| 2026-04-18 09:13 | -34.93263 | 150.51299 | 1103 ft | 92 kts | 275° |
| 2026-04-18 09:13 | -34.93129 | 150.50544 | 1279 ft | 90 kts | 274° |
| 2026-04-18 09:14 | -34.93023 | 150.49800 | 1480 ft | 88 kts | 270° |
| 2026-04-18 09:14 | -34.92898 | 150.49050 | 1561 ft | 95 kts | 275° |
| 2026-04-18 09:14 | -34.92703 | 150.48293 | 1550 ft | 93 kts | 278° |
| 2026-04-18 09:14 | -34.92525 | 150.47547 | 1780 ft | 94 kts | 278° |
| 2026-04-18 09:15 | -34.92335 | 150.46764 | 1924 ft | 95 kts | 277° |
| 2026-04-18 09:15 | -34.92152 | 150.46005 | 1981 ft | 94 kts | 280° |
| 2026-04-18 09:15 | -34.92023 | 150.45222 | 2007 ft | 95 kts | 278° |
| 2026-04-18 09:15 | -34.91918 | 150.44420 | 2230 ft | 97 kts | 277° |
| 2026-04-18 09:16 | -34.91805 | 150.43603 | 2390 ft | 98 kts | 277° |
| 2026-04-18 09:16 | -34.91689 | 150.42785 | 2458 ft | 98 kts | 277° |
| 2026-04-18 09:16 | -34.91567 | 150.41965 | 2487 ft | 99 kts | 280° |
| 2026-04-18 09:16 | -34.91404 | 150.41155 | 2501 ft | 98 kts | 282° |
| 2026-04-18 09:17 | -34.91240 | 150.40348 | 2506 ft | 98 kts | 282° |
| 2026-04-18 09:17 | -34.91070 | 150.39532 | 2512 ft | 99 kts | 282° |
| 2026-04-18 09:17 | -34.90901 | 150.38721 | 2515 ft | 98 kts | 282° |
| 2026-04-18 09:17 | -34.90734 | 150.37913 | 2512 ft | 99 kts | 282° |
| 2026-04-18 09:18 | -34.90567 | 150.37105 | 2514 ft | 98 kts | 282° |
| 2026-04-18 09:18 | -34.90401 | 150.36305 | 2514 ft | 97 kts | 282° |
| 2026-04-18 09:18 | -34.90235 | 150.35512 | 2518 ft | 97 kts | 282° |
| 2026-04-18 09:18 | -34.90069 | 150.34710 | 2514 ft | 98 kts | 282° |
| 2026-04-18 09:19 | -34.89908 | 150.33904 | 2515 ft | 97 kts | 282° |
| 2026-04-18 09:19 | -34.89745 | 150.33103 | 2514 ft | 97 kts | 282° |
| 2026-04-18 09:19 | -34.89582 | 150.32302 | 2514 ft | 97 kts | 282° |
| 2026-04-18 09:19 | -34.89417 | 150.31501 | 2512 ft | 97 kts | 282° |
| 2026-04-18 09:20 | -34.89249 | 150.30704 | 2511 ft | 97 kts | 282° |
| 2026-04-18 09:20 | -34.89081 | 150.29899 | 2515 ft | 98 kts | 282° |
| 2026-04-18 09:20 | -34.88916 | 150.29092 | 2514 ft | 98 kts | 282° |
| 2026-04-18 09:20 | -34.88755 | 150.28298 | 2518 ft | 97 kts | 282° |
| 2026-04-18 09:21 | -34.88588 | 150.27486 | 2520 ft | 98 kts | 285° |
| 2026-04-18 09:21 | -34.88349 | 150.26717 | 2519 ft | 98 kts | 291° |
| 2026-04-18 09:21 | -34.88096 | 150.25947 | 2517 ft | 98 kts | 291° |
| 2026-04-18 09:21 | -34.87844 | 150.25176 | 2521 ft | 98 kts | 291° |
| 2026-04-18 09:22 | -34.87587 | 150.24403 | 2522 ft | 98 kts | 290° |
| 2026-04-18 09:22 | -34.87333 | 150.23638 | 2518 ft | 98 kts | 291° |
| 2026-04-18 09:22 | -34.87077 | 150.22870 | 2518 ft | 98 kts | 291° |
| 2026-04-18 09:22 | -34.86821 | 150.22102 | 2519 ft | 98 kts | 291° |
| 2026-04-18 09:23 | -34.86565 | 150.21333 | 2518 ft | 98 kts | 291° |
| 2026-04-18 09:23 | -34.86308 | 150.20563 | 2801 ft | 98 kts | 292° |
| 2026-04-18 09:23 | -34.86044 | 150.19809 | 3166 ft | 97 kts | 292° |
| 2026-04-18 09:23 | -34.85783 | 150.19030 | 3368 ft | 100 kts | 285° |
| 2026-04-18 09:24 | -34.85565 | 150.18229 | 3459 ft | 99 kts | 284° |
| 2026-04-18 09:24 | -34.85357 | 150.17431 | 3491 ft | 99 kts | 284° |
| 2026-04-18 09:24 | -34.85159 | 150.16639 | 3506 ft | 96 kts | 284° |
| 2026-04-18 09:24 | -34.84970 | 150.15863 | 3511 ft | 96 kts | 285° |
| 2026-04-18 09:25 | -34.84751 | 150.15089 | 3518 ft | 97 kts | 287° |
| 2026-04-18 09:25 | -34.84529 | 150.14313 | 3521 ft | 97 kts | 287° |
| 2026-04-18 09:25 | -34.84300 | 150.13536 | 3523 ft | 98 kts | 287° |
| 2026-04-18 09:25 | -34.84077 | 150.12760 | 3519 ft | 97 kts | 287° |
| 2026-04-18 09:26 | -34.83860 | 150.11986 | 3517 ft | 97 kts | 287° |
| 2026-04-18 09:26 | -34.83641 | 150.11207 | 3518 ft | 97 kts | 286° |
| 2026-04-18 09:26 | -34.83427 | 150.10430 | 3518 ft | 97 kts | 286° |
| 2026-04-18 09:26 | -34.83219 | 150.09655 | 3519 ft | 96 kts | 286° |
| 2026-04-18 09:27 | -34.83017 | 150.08880 | 3516 ft | 96 kts | 285° |
| 2026-04-18 09:27 | -34.82812 | 150.08103 | 3517 ft | 97 kts | 285° |
| 2026-04-18 09:27 | -34.82603 | 150.07328 | 3518 ft | 96 kts | 285° |
| 2026-04-18 09:27 | -34.82389 | 150.06552 | 3519 ft | 97 kts | 286° |
| 2026-04-18 09:28 | -34.82177 | 150.05775 | 3521 ft | 97 kts | 286° |
| 2026-04-18 09:28 | -34.81962 | 150.04999 | 3520 ft | 97 kts | 286° |
| 2026-04-18 09:28 | -34.81747 | 150.04229 | 3439 ft | 97 kts | 285° |
| 2026-04-18 09:28 | -34.81547 | 150.03452 | 3063 ft | 96 kts | 285° |
| 2026-04-18 09:29 | -34.81365 | 150.02668 | 2677 ft | 97 kts | 284° |
| 2026-04-18 09:29 | -34.81185 | 150.01901 | 2507 ft | 86 kts | 294° |
| 2026-04-18 09:29 | -34.80910 | 150.01280 | 2594 ft | 82 kts | 306° |
| 2026-04-18 09:29 | -34.80574 | 150.00732 | 2638 ft | 82 kts | 309° |
| 2026-04-18 09:30 | -34.80229 | 150.00137 | 2685 ft | 92 kts | 315° |
| 2026-04-18 09:30 | -34.79637 | 149.99654 | 2577 ft | 111 kts | 332° |
| 2026-04-18 09:30 | -34.78933 | 149.99232 | 2598 ft | 114 kts | 335° |
| 2026-04-18 09:30 | -34.78222 | 149.98792 | 2595 ft | 115 kts | 334° |
| 2026-04-18 09:31 | -34.77513 | 149.98343 | 2593 ft | 115 kts | 334° |
| 2026-04-18 09:31 | -34.76805 | 149.97892 | 2593 ft | 114 kts | 334° |
| 2026-04-18 09:31 | -34.76086 | 149.97482 | 2595 ft | 113 kts | 337° |
| 2026-04-18 09:31 | -34.75379 | 149.97069 | 2596 ft | 111 kts | 336° |
| 2026-04-18 09:32 | -34.74714 | 149.96678 | 2596 ft | 101 kts | 336° |
| 2026-04-18 09:32 | -34.74123 | 149.96311 | 2847 ft | 95 kts | 336° |
| 2026-04-18 09:32 | -34.73527 | 149.95955 | 3002 ft | 96 kts | 336° |
| 2026-04-18 09:32 | -34.73140 | 149.95364 | 3066 ft | 102 kts | 260° |
| 2026-04-18 09:33 | -34.73435 | 149.94553 | 3103 ft | 109 kts | 243° |
| 2026-04-18 09:33 | -34.73732 | 149.93690 | 3136 ft | 113 kts | 246° |
| 2026-04-18 09:33 | -34.73979 | 149.92788 | 3135 ft | 113 kts | 258° |
| 2026-04-18 09:33 | -34.74024 | 149.91834 | 3135 ft | 113 kts | 267° |
| 2026-04-18 09:34 | -34.74034 | 149.90880 | 3134 ft | 113 kts | 267° |
| 2026-04-18 09:34 | -34.74062 | 149.89938 | 3132 ft | 113 kts | 266° |
| 2026-04-18 09:34 | -34.74093 | 149.88971 | 3135 ft | 113 kts | 266° |
| 2026-04-18 09:34 | -34.74125 | 149.88022 | 3265 ft | 109 kts | 266° |
| 2026-04-18 09:35 | -34.74156 | 149.87116 | 3417 ft | 109 kts | 266° |
| 2026-04-18 09:35 | -34.74183 | 149.86203 | 3481 ft | 107 kts | 266° |
| 2026-04-18 09:35 | -34.74184 | 149.85298 | 3503 ft | 107 kts | 274° |
| 2026-04-18 09:35 | -34.74072 | 149.84403 | 3516 ft | 107 kts | 277° |
| 2026-04-18 09:36 | -34.73943 | 149.83507 | 3519 ft | 107 kts | 278° |
| 2026-04-18 09:36 | -34.73812 | 149.82616 | 3521 ft | 107 kts | 278° |
| 2026-04-18 09:36 | -34.73684 | 149.81722 | 3524 ft | 108 kts | 278° |
| 2026-04-18 09:36 | -34.73555 | 149.80826 | 3523 ft | 107 kts | 276° |
| 2026-04-18 09:37 | -34.73565 | 149.79926 | 3524 ft | 107 kts | 263° |
| 2026-04-18 09:37 | -34.73655 | 149.79034 | 3525 ft | 106 kts | 261° |
| 2026-04-18 09:37 | -34.73752 | 149.78143 | 3523 ft | 106 kts | 261° |
| 2026-04-18 09:37 | -34.73852 | 149.77250 | 3524 ft | 107 kts | 258° |
| 2026-04-18 09:38 | -34.74048 | 149.76381 | 3525 ft | 106 kts | 251° |
| 2026-04-18 09:38 | -34.74301 | 149.75537 | 3525 ft | 106 kts | 246° |
| 2026-04-18 09:38 | -34.74587 | 149.74709 | 3524 ft | 106 kts | 246° |
| 2026-04-18 09:38 | -34.74877 | 149.73884 | 3524 ft | 106 kts | 246° |
| 2026-04-18 09:39 | -34.75166 | 149.73059 | 3524 ft | 106 kts | 246° |
| 2026-04-18 09:39 | -34.75456 | 149.72235 | 3524 ft | 106 kts | 245° |
| 2026-04-18 09:39 | -34.75787 | 149.71434 | 3522 ft | 106 kts | 238° |
| 2026-04-18 09:39 | -34.76191 | 149.70685 | 3522 ft | 106 kts | 235° |
| 2026-04-18 09:40 | -34.76585 | 149.69992 | 3531 ft | 90 kts | 234° |
| 2026-04-18 09:40 | -34.76914 | 149.69441 | 3525 ft | 72 kts | 234° |
| 2026-04-18 09:40 | -34.77182 | 149.69008 | 3524 ft | 57 kts | 234° |
| 2026-04-18 09:40 | -34.77405 | 149.68648 | 3522 ft | 52 kts | 234° |
| 2026-04-18 09:41 | -34.77629 | 149.68296 | 3522 ft | 53 kts | 219° |
| 2026-04-18 09:41 | -34.77986 | 149.68235 | 3522 ft | 56 kts | 163° |
| 2026-04-18 09:41 | -34.78243 | 149.68596 | 3523 ft | 60 kts | 115° |
| 2026-04-18 09:41 | -34.78379 | 149.69075 | 3522 ft | 60 kts | 112° |
| 2026-04-18 09:42 | -34.78507 | 149.69550 | 3519 ft | 60 kts | 112° |
| 2026-04-18 09:42 | -34.78638 | 149.70041 | 3521 ft | 60 kts | 112° |
| 2026-04-18 09:42 | -34.78765 | 149.70521 | 3521 ft | 61 kts | 112° |
| 2026-04-18 09:42 | -34.78894 | 149.71011 | 3521 ft | 61 kts | 112° |
| 2026-04-18 09:43 | -34.79022 | 149.71500 | 3521 ft | 61 kts | 112° |
| 2026-04-18 09:43 | -34.79188 | 149.71973 | 3518 ft | 66 kts | 130° |
| 2026-04-18 09:43 | -34.79548 | 149.72525 | 3512 ft | 100 kts | 132° |
| 2026-04-18 09:43 | -34.80090 | 149.73267 | 3507 ft | 132 kts | 133° |
| 2026-04-18 09:44 | -34.80754 | 149.74137 | 3524 ft | 141 kts | 133° |
| 2026-04-18 09:44 | -34.81350 | 149.74959 | 3544 ft | 116 kts | 132° |
| 2026-04-18 09:44 | -34.81862 | 149.75724 | 3520 ft | 122 kts | 132° |
| 2026-04-18 09:44 | -34.82383 | 149.76553 | 3526 ft | 125 kts | 122° |
| 2026-04-18 09:45 | -34.82758 | 149.77531 | 3527 ft | 129 kts | 115° |
| 2026-04-18 09:45 | -34.83106 | 149.78541 | 3527 ft | 129 kts | 115° |
| 2026-04-18 09:45 | -34.83463 | 149.79541 | 3528 ft | 129 kts | 116° |
| 2026-04-18 09:45 | -34.83823 | 149.80541 | 3528 ft | 129 kts | 116° |
| 2026-04-18 09:46 | -34.84182 | 149.81542 | 3527 ft | 129 kts | 116° |
| 2026-04-18 09:46 | -34.84540 | 149.82545 | 3527 ft | 129 kts | 115° |
| 2026-04-18 09:46 | -34.84896 | 149.83548 | 3530 ft | 129 kts | 115° |
| 2026-04-18 09:46 | -34.85249 | 149.84550 | 3530 ft | 129 kts | 115° |
| 2026-04-18 09:47 | -34.85601 | 149.85550 | 3530 ft | 129 kts | 115° |
| 2026-04-18 09:47 | -34.85953 | 149.86552 | 3530 ft | 128 kts | 115° |
| 2026-04-18 09:47 | -34.86304 | 149.87551 | 3530 ft | 128 kts | 115° |
| 2026-04-18 09:47 | -34.86655 | 149.88551 | 3530 ft | 128 kts | 115° |
| 2026-04-18 09:48 | -34.86998 | 149.89537 | 3538 ft | 123 kts | 114° |
| 2026-04-18 09:48 | -34.87331 | 149.90490 | 3532 ft | 123 kts | 115° |
| 2026-04-18 09:48 | -34.87668 | 149.91448 | 3531 ft | 123 kts | 115° |
| 2026-04-18 09:48 | -34.88002 | 149.92398 | 3531 ft | 124 kts | 114° |
| 2026-04-18 09:49 | -34.88231 | 149.93049 | 3530 ft | 124 kts | 114° |
| 2026-04-18 09:49 | -34.88679 | 149.94329 | 3530 ft | 123 kts | 115° |
| 2026-04-18 09:49 | -34.89017 | 149.95292 | 3531 ft | 124 kts | 114° |
| 2026-04-18 09:49 | -34.89247 | 149.95948 | 3534 ft | 125 kts | 114° |
| 2026-04-18 09:50 | -34.89584 | 149.96914 | 3535 ft | 123 kts | 114° |
| 2026-04-18 09:50 | -34.89922 | 149.97881 | 3535 ft | 125 kts | 114° |
| 2026-04-18 09:50 | -34.90261 | 149.98852 | 3536 ft | 124 kts | 114° |
| 2026-04-18 09:50 | -34.90597 | 149.99814 | 3534 ft | 124 kts | 114° |
| 2026-04-18 09:51 | -34.90936 | 150.00784 | 3536 ft | 124 kts | 114° |
| 2026-04-18 09:51 | -34.91273 | 150.01749 | 3535 ft | 124 kts | 114° |
| 2026-04-18 09:51 | -34.91608 | 150.02713 | 3536 ft | 123 kts | 115° |
| 2026-04-18 09:51 | -34.91942 | 150.03672 | 3536 ft | 123 kts | 115° |
| 2026-04-18 09:52 | -34.92278 | 150.04633 | 3534 ft | 124 kts | 114° |
| 2026-04-18 09:52 | -34.92616 | 150.05602 | 3536 ft | 124 kts | 114° |
| 2026-04-18 09:52 | -34.92951 | 150.06566 | 3536 ft | 123 kts | 114° |
| 2026-04-18 09:52 | -34.93285 | 150.07528 | 3535 ft | 124 kts | 114° |
| 2026-04-18 09:53 | -34.93619 | 150.08483 | 3534 ft | 125 kts | 114° |
| 2026-04-18 09:53 | -34.93959 | 150.09457 | 3535 ft | 125 kts | 114° |
| 2026-04-18 09:53 | -34.94295 | 150.10425 | 3536 ft | 124 kts | 114° |
| 2026-04-18 09:53 | -34.94631 | 150.11390 | 3536 ft | 123 kts | 114° |
| 2026-04-18 09:54 | -34.94966 | 150.12354 | 3531 ft | 124 kts | 114° |
| 2026-04-18 09:54 | -34.95304 | 150.13325 | 3534 ft | 124 kts | 114° |
| 2026-04-18 09:54 | -34.95639 | 150.14289 | 3533 ft | 123 kts | 114° |
| 2026-04-18 09:54 | -34.95976 | 150.15253 | 3536 ft | 123 kts | 114° |
| 2026-04-18 09:55 | -34.96310 | 150.16215 | 3538 ft | 123 kts | 114° |
| 2026-04-18 09:55 | -34.96644 | 150.17177 | 3537 ft | 124 kts | 114° |
| 2026-04-18 09:55 | -34.96975 | 150.18135 | 3530 ft | 121 kts | 115° |
| 2026-04-18 09:55 | -34.97303 | 150.19081 | 3532 ft | 121 kts | 115° |
| 2026-04-18 09:56 | -34.97629 | 150.20026 | 3532 ft | 121 kts | 115° |
| 2026-04-18 09:56 | -34.97827 | 150.21031 | 3533 ft | 124 kts | 97° |
| 2026-04-18 09:56 | -34.97858 | 150.22082 | 3530 ft | 125 kts | 94° |
| 2026-04-18 09:56 | -34.97870 | 150.23141 | 3534 ft | 124 kts | 93° |
| 2026-04-18 09:57 | -34.97878 | 150.24193 | 3530 ft | 124 kts | 94° |
| 2026-04-18 09:57 | -34.97887 | 150.25250 | 3533 ft | 125 kts | 94° |
| 2026-04-18 09:57 | -34.97893 | 150.26304 | 3534 ft | 124 kts | 93° |
| 2026-04-18 09:57 | -34.97894 | 150.27354 | 3536 ft | 124 kts | 91° |
| 2026-04-18 09:58 | -34.97861 | 150.28392 | 3530 ft | 124 kts | 90° |
| 2026-04-18 09:58 | -34.97826 | 150.29446 | 3520 ft | 125 kts | 91° |
| 2026-04-18 09:58 | -34.97791 | 150.30501 | 3523 ft | 124 kts | 90° |
| 2026-04-18 09:58 | -34.97752 | 150.31552 | 3528 ft | 124 kts | 90° |
| 2026-04-18 09:59 | -34.97713 | 150.32604 | 3526 ft | 124 kts | 90° |
| 2026-04-18 09:59 | -34.97672 | 150.33660 | 3528 ft | 124 kts | 90° |
| 2026-04-18 09:59 | -34.97632 | 150.34712 | 3525 ft | 125 kts | 90° |
| 2026-04-18 10:00 | -34.97550 | 150.36818 | 3530 ft | 124 kts | 90° |
| 2026-04-18 10:00 | -34.97506 | 150.37868 | 3535 ft | 124 kts | 90° |
| 2026-04-18 10:00 | -34.97462 | 150.38913 | 3529 ft | 124 kts | 90° |
| 2026-04-18 10:00 | -34.97418 | 150.39962 | 3532 ft | 124 kts | 90° |
| 2026-04-18 10:01 | -34.97341 | 150.41011 | 3526 ft | 125 kts | 83° |
| 2026-04-18 10:01 | -34.97163 | 150.42049 | 3526 ft | 125 kts | 81° |
| 2026-04-18 10:01 | -34.96966 | 150.43074 | 3242 ft | 123 kts | 79° |
| 2026-04-18 10:01 | -34.96762 | 150.44068 | 2862 ft | 120 kts | 79° |
| 2026-04-18 10:02 | -34.96560 | 150.45052 | 2477 ft | 120 kts | 78° |
| 2026-04-18 10:02 | -34.96367 | 150.46038 | 2093 ft | 120 kts | 79° |
| 2026-04-18 10:02 | -34.96148 | 150.47045 | 1777 ft | 127 kts | 80° |
| 2026-04-18 10:02 | -34.95892 | 150.48085 | 1632 ft | 129 kts | 80° |
| 2026-04-18 10:03 | -34.95644 | 150.49132 | 1558 ft | 128 kts | 80° |
| 2026-04-18 10:03 | -34.95399 | 150.50078 | 1239 ft | 105 kts | 78° |
| 2026-04-18 10:03 | -34.95201 | 150.50822 | 1026 ft | 81 kts | 81° |
| 2026-04-18 10:03 | -34.95083 | 150.51418 | 940 ft | 65 kts | 88° |
| 2026-04-18 10:04 | -34.95000 | 150.51931 | 884 ft | 59 kts | 85° |
| 2026-04-18 10:04 | -34.94912 | 150.52436 | 838 ft | 63 kts | 84° |
| 2026-04-18 10:04 | -34.94828 | 150.52967 | 787 ft | 65 kts | 84° |
| 2026-04-18 10:04 | -34.94749 | 150.53519 | 738 ft | 67 kts | 84° |
| 2026-04-18 10:05 | -34.94686 | 150.54082 | 616 ft | 65 kts | 86° |
| 2026-04-18 10:05 | -34.94655 | 150.54546 | 446 ft | 38 kts | 84° |
| 2026-04-18 10:05 | -34.94622 | 150.54675 | 378 ft | 2 kts | 81° |
| 2026-04-18 10:05 | -34.94617 | 150.54671 | 363 ft | 1 kts | 76° |